Airport Information

KBNO - Burns Municipal Airport

KBNO 251153Z AUTO 00000KT 10SM CLR M03/M05 A3014 RMK AO2 SLP215 T10281050 10011 21028 56012


  • General Information

  • Coordinates: N 43°35'30"/ W 118°57'19"
  • Location: N/A
  • Surveyed Elevation: 4159 MSL

Operations

Flow Name Active Runways Conditions

Green background denotes normal operations.


Common Frequencies

Callsign Frequency Position Name

More at the Document Center


Charts